Wetterdaten: Dienstag, 07.04.2015
Datum Zeit Temp. A. Feuchte A. Luftdruck Regen Wind Richtung Richtung Sonnenschein ET UV Solar Taupunkt Windchill Windben Empfang
07.04.2015 00:00 1,0 C 71 % 1031,1 hPa 0,0 l/m 0,0 km/h (0 Bft) SW 227 0 min 0,000 mm 0,0 UV-I 0 W/m -3,7 C 1,0 C 0,0 km/h (0 Bft) 0,00 %
07.04.2015 00:15 1,1 C 68 % 1031,2 hPa 0,0 l/m 2,9 km/h (1 Bft) W-NW 293 0 min 0,000 mm 0,0 UV-I 0 W/m -4,1 C 1,1 C 4,0 km/h (1 Bft) 0,00 %
07.04.2015 00:30 1,3 C 64 % 1031,4 hPa 0,0 l/m 0,0 km/h (0 Bft) SW 230 0 min 0,000 mm 0,0 UV-I 0 W/m -4,7 C 1,3 C 0,0 km/h (0 Bft) 0,00 %
07.04.2015 00:45 1,2 C 64 % 1031,5 hPa 0,0 l/m 0,7 km/h (0 Bft) W-NW 293 0 min 0,000 mm 0,0 UV-I 0 W/m -4,8 C 1,2 C 4,0 km/h (1 Bft) 0,00 %
07.04.2015 01:00 1,1 C 64 % 1031,7 hPa 0,0 l/m 1,8 km/h (1 Bft) W 280 0 min 0,000 mm 0,0 UV-I 0 W/m -4,9 C 1,1 C 4,0 km/h (1 Bft) 0,00 %
07.04.2015 01:15 1,1 C 64 % 1031,9 hPa 0,0 l/m 0,4 km/h (0 Bft) W 260 0 min 0,000 mm 0,0 UV-I 0 W/m -4,9 C 1,1 C 4,0 km/h (1 Bft) 0,00 %
07.04.2015 01:30 1,1 C 66 % 1031,8 hPa 0,0 l/m 0,4 km/h (0 Bft) W-SW 250 0 min 0,000 mm 0,0 UV-I 0 W/m -4,5 C 1,1 C 4,0 km/h (1 Bft) 0,00 %
07.04.2015 01:45 0,9 C 70 % 1032,1 hPa 0,0 l/m 0,0 km/h (0 Bft) S-SW 208 0 min 0,000 mm 0,0 UV-I 0 W/m -3,9 C 0,9 C 0,0 km/h (0 Bft) 0,00 %
07.04.2015 02:00 0,6 C 71 % 1032,0 hPa 0,0 l/m 0,0 km/h (0 Bft) S-SW 211 0 min 0,000 mm 0,0 UV-I 0 W/m -4,0 C 0,6 C 0,0 km/h (0 Bft) 0,00 %
07.04.2015 02:15 0,5 C 73 % 1032,2 hPa 0,0 l/m 0,0 km/h (0 Bft) SW 216 0 min 0,000 mm 0,0 UV-I 0 W/m -3,8 C 0,5 C 0,0 km/h (0 Bft) 0,00 %
07.04.2015 02:30 0,5 C 73 % 1032,3 hPa 0,0 l/m 0,0 km/h (0 Bft) S-SW 199 0 min 0,000 mm 0,0 UV-I 0 W/m -3,8 C 0,5 C 0,0 km/h (0 Bft) 0,00 %
07.04.2015 02:45 0,6 C 73 % 1032,3 hPa 0,0 l/m 0,0 km/h (0 Bft) W-SW 255 0 min 0,000 mm 0,0 UV-I 0 W/m -3,7 C 0,6 C 0,0 km/h (0 Bft) 0,00 %
07.04.2015 03:00 0,6 C 72 % 1032,6 hPa 0,0 l/m 0,0 km/h (0 Bft) S-SW 200 0 min 0,000 mm 0,0 UV-I 0 W/m -3,9 C 0,6 C 0,0 km/h (0 Bft) 0,00 %
07.04.2015 03:15 0,4 C 73 % 1032,6 hPa 0,0 l/m 0,0 km/h (0 Bft) S-SW 196 0 min 0,000 mm 0,0 UV-I 0 W/m -3,9 C 0,4 C 0,0 km/h (0 Bft) 0,00 %
07.04.2015 03:30 0,2 C 74 % 1032,9 hPa 0,0 l/m 0,0 km/h (0 Bft) S-SW 213 0 min 0,000 mm 0,0 UV-I 0 W/m -3,9 C 0,2 C 0,0 km/h (0 Bft) 0,00 %
07.04.2015 03:45 0,2 C 74 % 1033,0 hPa 0,0 l/m 0,0 km/h (0 Bft) S-SW 212 0 min 0,000 mm 0,0 UV-I 0 W/m -3,9 C 0,2 C 0,0 km/h (0 Bft) 0,00 %
07.04.2015 04:00 0,2 C 74 % 1033,0 hPa 0,0 l/m 0,0 km/h (0 Bft) S 190 0 min 0,000 mm 0,0 UV-I 0 W/m -3,9 C 0,2 C 0,0 km/h (0 Bft) 0,00 %
07.04.2015 04:15 0,2 C 74 % 1033,2 hPa 0,0 l/m 0,0 km/h (0 Bft) W-SW 255 0 min 0,000 mm 0,0 UV-I 0 W/m -3,9 C 0,2 C 0,0 km/h (0 Bft) 0,00 %
07.04.2015 04:30 0,1 C 72 % 1033,3 hPa 0,0 l/m 0,0 km/h (0 Bft) S 189 0 min 0,000 mm 0,0 UV-I 0 W/m -4,3 C 0,1 C 0,0 km/h (0 Bft) 0,00 %
07.04.2015 04:45 -0,2 C 72 % 1033,4 hPa 0,0 l/m 0,0 km/h (0 Bft) S 176 0 min 0,000 mm 0,0 UV-I 0 W/m -4,6 C -0,2 C 0,0 km/h (0 Bft) 0,00 %
07.04.2015 05:00 -0,6 C 73 % 1033,7 hPa 0,0 l/m 0,0 km/h (0 Bft) S-SW 199 0 min 0,000 mm 0,0 UV-I 0 W/m -4,8 C -0,6 C 0,0 km/h (0 Bft) 0,00 %
07.04.2015 05:15 -0,9 C 73 % 1034,1 hPa 0,0 l/m 0,0 km/h (0 Bft) SW 214 0 min 0,000 mm 0,0 UV-I 0 W/m -5,1 C -0,9 C 0,0 km/h (0 Bft) 0,00 %
07.04.2015 05:30 -1,1 C 74 % 1034,5 hPa 0,0 l/m 0,0 km/h (0 Bft) S-SW 204 0 min 0,000 mm 0,0 UV-I 0 W/m -5,1 C -1,1 C 0,0 km/h (0 Bft) 0,00 %
07.04.2015 05:45 -1,4 C 75 % 1034,7 hPa 0,0 l/m 0,0 km/h (0 Bft) S-SW 206 0 min 0,000 mm 0,0 UV-I 0 W/m -5,2 C -1,4 C 0,0 km/h (0 Bft) 0,00 %
07.04.2015 06:00 -1,3 C 76 % 1035,0 hPa 0,0 l/m 0,0 km/h (0 Bft) S-SW 196 0 min 0,000 mm 0,0 UV-I 0 W/m -5,0 C -1,3 C 0,0 km/h (0 Bft) 0,00 %
07.04.2015 06:15 -1,1 C 76 % 1035,2 hPa 0,0 l/m 0,0 km/h (0 Bft) SW 219 0 min 0,000 mm 0,0 UV-I 0 W/m -4,8 C -1,1 C 0,0 km/h (0 Bft) 0,00 %
07.04.2015 06:30 -0,5 C 74 % 1035,3 hPa 0,0 l/m 0,0 km/h (0 Bft) SW 214 0 min 0,000 mm 0,0 UV-I 0 W/m -4,5 C -0,5 C 0,0 km/h (0 Bft) 0,00 %
07.04.2015 06:45 -0,1 C 71 % 1035,5 hPa 0,0 l/m 1,4 km/h (1 Bft) S-SW 209 0 min 0,000 mm 0,0 UV-I 0 W/m -4,7 C -0,1 C 4,0 km/h (1 Bft) 0,00 %
07.04.2015 07:00 0,0 C 71 % 1035,6 hPa 0,0 l/m 0,0 km/h (0 Bft) SW 223 0 min 0,000 mm 0,0 UV-I 16 W/m -4,6 C 0,0 C 0,0 km/h (0 Bft) 0,00 %
07.04.2015 07:15 0,1 C 71 % 1036,0 hPa 0,0 l/m 0,0 km/h (0 Bft) SW 227 0 min 0,000 mm 1,0 UV-I 28 W/m -4,5 C 0,1 C 0,0 km/h (0 Bft) 0,00 %
07.04.2015 07:30 0,1 C 72 % 1036,2 hPa 0,0 l/m 0,0 km/h (0 Bft) SW 225 0 min 0,000 mm 1,0 UV-I 40 W/m -4,3 C 0,1 C 0,0 km/h (0 Bft) 0,00 %
07.04.2015 07:45 0,3 C 71 % 1036,2 hPa 0,0 l/m 1,8 km/h (1 Bft) W-SW 255 0 min 0,000 mm 1,0 UV-I 69 W/m -4,3 C 0,3 C 4,0 km/h (1 Bft) 0,00 %
07.04.2015 08:00 0,9 C 70 % 1036,4 hPa 0,0 l/m 3,2 km/h (1 Bft) W-SW 253 0 min 0,000 mm 1,0 UV-I 106 W/m -3,9 C 0,9 C 4,0 km/h (1 Bft) 0,00 %
07.04.2015 08:15 2,1 C 64 % 1036,3 hPa 0,0 l/m 0,4 km/h (0 Bft) W-SW 256 0 min 0,000 mm 1,0 UV-I 132 W/m -4,0 C 2,1 C 4,0 km/h (1 Bft) 0,00 %
07.04.2015 08:30 1,9 C 62 % 1036,3 hPa 0,0 l/m 0,0 km/h (0 Bft) W-SW 245 0 min 0,000 mm 1,0 UV-I 134 W/m -4,6 C 1,9 C 0,0 km/h (0 Bft) 0,00 %
07.04.2015 08:45 2,2 C 61 % 1036,5 hPa 0,0 l/m 0,4 km/h (0 Bft) SW 228 0 min 0,000 mm 1,0 UV-I 158 W/m -4,5 C 2,2 C 4,0 km/h (1 Bft) 0,00 %
07.04.2015 09:00 2,4 C 60 % 1036,8 hPa 0,0 l/m 3,2 km/h (1 Bft) W-SW 253 0 min 0,000 mm 1,0 UV-I 151 W/m -4,6 C 2,4 C 7,9 km/h (2 Bft) 0,00 %
07.04.2015 09:15 2,7 C 64 % 1036,8 hPa 0,0 l/m 4,3 km/h (1 Bft) W-SW 256 0 min 0,000 mm 2,0 UV-I 143 W/m -3,4 C 2,7 C 7,9 km/h (2 Bft) 0,00 %
07.04.2015 09:30 3,1 C 64 % 1036,7 hPa 0,0 l/m 4,3 km/h (1 Bft) W-SW 252 0 min 0,000 mm 2,0 UV-I 163 W/m -3,0 C 3,1 C 7,9 km/h (2 Bft) 0,00 %
07.04.2015 09:45 3,4 C 61 % 1036,8 hPa 0,0 l/m 2,2 km/h (1 Bft) W-SW 240 0 min 0,000 mm 2,0 UV-I 193 W/m -3,4 C 3,4 C 4,0 km/h (1 Bft) 0,00 %
07.04.2015 10:00 3,9 C 59 % 1036,7 hPa 0,0 l/m 0,0 km/h (0 Bft) S-SW 196 0 min 0,000 mm 2,0 UV-I 248 W/m -3,4 C 3,9 C 0,0 km/h (0 Bft) 0,00 %
07.04.2015 10:15 4,7 C 56 % 1036,6 hPa 0,0 l/m 0,0 km/h (0 Bft) S-SW 197 0 min 0,000 mm 3,0 UV-I 244 W/m -3,3 C 4,7 C 0,0 km/h (0 Bft) 0,00 %
07.04.2015 10:30 5,0 C 53 % 1036,6 hPa 0,0 l/m 1,8 km/h (1 Bft) S-SW 196 15 min 0,000 mm 3,0 UV-I 385 W/m -3,8 C 5,0 C 4,0 km/h (1 Bft) 0,00 %
07.04.2015 10:45 4,9 C 51 % 1036,5 hPa 0,0 l/m 0,0 km/h (0 Bft) S-SW 208 0 min 0,000 mm 4,0 UV-I 297 W/m -4,4 C 4,9 C 0,0 km/h (0 Bft) 0,00 %
07.04.2015 11:00 6,1 C 50 % 1036,1 hPa 0,0 l/m 1,4 km/h (1 Bft) W-SW 252 0 min 0,000 mm 4,0 UV-I 353 W/m -3,5 C 6,1 C 7,9 km/h (2 Bft) 0,00 %
07.04.2015 11:15 7,1 C 46 % 1036,0 hPa 0,0 l/m 0,0 km/h (0 Bft) SW 216 15 min 0,000 mm 5,0 UV-I 434 W/m -3,7 C 7,1 C 0,0 km/h (0 Bft) 0,00 %
07.04.2015 11:30 7,5 C 43 % 1035,8 hPa 0,0 l/m 4,3 km/h (1 Bft) SW 221 15 min 0,000 mm 2,0 UV-I 604 W/m -4,3 C 7,5 C 7,9 km/h (2 Bft) 0,00 %
07.04.2015 11:45 6,0 C 45 % 1035,8 hPa 0,0 l/m 0,0 km/h (0 Bft) O-SO 106 0 min 0,000 mm 4,0 UV-I 232 W/m -5,0 C 6,0 C 0,0 km/h (0 Bft) 0,00 %
07.04.2015 12:00 6,4 C 42 % 1035,7 hPa 0,0 l/m 10,8 km/h (2 Bft) W-SW 256 15 min 0,000 mm 2,0 UV-I 564 W/m -5,6 C 3,1 C 11,9 km/h (2 Bft) 0,00 %
07.04.2015 12:15 5,4 C 46 % 1035,9 hPa 0,0 l/m 0,0 km/h (0 Bft) SW 224 0 min 0,000 mm 3,0 UV-I 191 W/m -5,3 C 5,4 C 0,0 km/h (0 Bft) 0,00 %
07.04.2015 12:30 6,8 C 42 % 1035,5 hPa 0,0 l/m 2,9 km/h (1 Bft) W 281 0 min 0,000 mm 2,0 UV-I 382 W/m -5,2 C 6,8 C 7,9 km/h (2 Bft) 0,00 %
07.04.2015 12:45 6,7 C 41 % 1035,4 hPa 0,0 l/m 9,7 km/h (2 Bft) W-NW 296 0 min 0,000 mm 6,0 UV-I 239 W/m -5,6 C 4,2 C 15,8 km/h (3 Bft) 0,00 %
07.04.2015 13:00 6,7 C 41 % 1035,4 hPa 0,0 l/m 4,0 km/h (1 Bft) W-SW 255 15 min 0,000 mm 2,0 UV-I 833 W/m -5,6 C 6,7 C 7,9 km/h (2 Bft) 0,00 %
07.04.2015 13:15 6,0 C 45 % 1035,4 hPa 0,0 l/m 3,2 km/h (1 Bft) S-SW 207 0 min 0,000 mm 5,0 UV-I 214 W/m -5,0 C 6,0 C 7,9 km/h (2 Bft) 0,00 %
07.04.2015 13:30 7,3 C 40 % 1035,0 hPa 0,0 l/m 0,7 km/h (0 Bft) S 183 0 min 0,000 mm 3,0 UV-I 249 W/m -5,4 C 7,3 C 4,0 km/h (1 Bft) 0,00 %
07.04.2015 13:45 6,6 C 43 % 1035,0 hPa 0,0 l/m 7,9 km/h (2 Bft) W-SW 256 0 min 0,000 mm 5,0 UV-I 332 W/m -5,1 C 5,4 C 7,9 km/h (2 Bft) 0,00 %
07.04.2015 14:00 6,7 C 44 % 1034,9 hPa 0,0 l/m 6,8 km/h (2 Bft) W-SW 256 15 min 0,000 mm 3,0 UV-I 675 W/m -4,7 C 6,4 C 11,9 km/h (2 Bft) 0,00 %
07.04.2015 14:15 7,6 C 41 % 1034,5 hPa 0,0 l/m 7,9 km/h (2 Bft) W-SW 255 0 min 0,000 mm 3,0 UV-I 177 W/m -4,8 C 6,4 C 7,9 km/h (2 Bft) 0,00 %
07.04.2015 14:30 6,9 C 45 % 1034,5 hPa 0,0 l/m 5,4 km/h (1 Bft) W-SW 251 15 min 0,000 mm 2,0 UV-I 744 W/m -4,2 C 6,9 C 7,9 km/h (2 Bft) 0,00 %
07.04.2015 14:45 7,7 C 38 % 1034,2 hPa 0,0 l/m 6,8 km/h (2 Bft) NO 51 15 min 0,000 mm 2,0 UV-I 646 W/m -5,7 C 7,4 C 11,9 km/h (2 Bft) 0,00 %
07.04.2015 15:00 7,9 C 43 % 1034,0 hPa 0,0 l/m 2,2 km/h (1 Bft) W-SW 256 15 min 0,000 mm 2,0 UV-I 709 W/m -3,9 C 7,9 C 4,0 km/h (1 Bft) 0,00 %
07.04.2015 15:15 7,5 C 42 % 1033,6 hPa 0,0 l/m 3,2 km/h (1 Bft) W-SW 252 15 min 0,000 mm 2,0 UV-I 366 W/m -4,6 C 7,5 C 4,0 km/h (1 Bft) 0,00 %
07.04.2015 15:30 8,1 C 43 % 1033,5 hPa 0,0 l/m 10,4 km/h (2 Bft) W-SW 252 15 min 0,000 mm 2,0 UV-I 722 W/m -3,7 C 5,2 C 11,9 km/h (2 Bft) 0,00 %
07.04.2015 15:45 7,8 C 43 % 1033,3 hPa 0,0 l/m 6,5 km/h (2 Bft) W-NW 293 0 min 0,000 mm 2,0 UV-I 208 W/m -4,0 C 7,7 C 7,9 km/h (2 Bft) 0,00 %
07.04.2015 16:00 8,0 C 44 % 1033,4 hPa 0,0 l/m 4,7 km/h (1 Bft) SW 233 0 min 0,000 mm 2,0 UV-I 216 W/m -3,5 C 8,0 C 7,9 km/h (2 Bft) 0,00 %
07.04.2015 16:15 7,9 C 42 % 1033,2 hPa 0,0 l/m 9,0 km/h (2 Bft) SW 227 0 min 0,000 mm 2,0 UV-I 161 W/m -4,2 C 5,9 C 11,9 km/h (2 Bft) 0,00 %
07.04.2015 16:30 8,2 C 41 % 1033,3 hPa 0,0 l/m 8,3 km/h (2 Bft) W 273 0 min 0,000 mm 2,0 UV-I 164 W/m -4,3 C 6,7 C 11,9 km/h (2 Bft) 0,00 %
07.04.2015 16:45 7,8 C 40 % 1033,1 hPa 0,0 l/m 5,8 km/h (2 Bft) W 268 0 min 0,000 mm 2,0 UV-I 147 W/m -4,9 C 7,8 C 7,9 km/h (2 Bft) 0,00 %
07.04.2015 17:00 8,3 C 39 % 1032,9 hPa 0,0 l/m 5,4 km/h (1 Bft) SW 224 0 min 0,000 mm 1,0 UV-I 166 W/m -4,8 C 8,3 C 7,9 km/h (2 Bft) 0,00 %
07.04.2015 17:15 8,5 C 39 % 1033,0 hPa 0,0 l/m 5,8 km/h (2 Bft) S 185 15 min 0,000 mm 1,0 UV-I 508 W/m -4,6 C 8,5 C 7,9 km/h (2 Bft) 0,00 %
07.04.2015 17:30 8,6 C 38 % 1032,6 hPa 0,0 l/m 1,4 km/h (1 Bft) S-SW 201 15 min 0,000 mm 1,0 UV-I 503 W/m -4,9 C 8,6 C 7,9 km/h (2 Bft) 0,00 %
07.04.2015 17:45 8,2 C 40 % 1032,5 hPa 0,0 l/m 15,8 km/h (3 Bft) W 259 15 min 0,000 mm 1,0 UV-I 464 W/m -4,6 C 2,6 C 24,1 km/h (4 Bft) 0,00 %
07.04.2015 18:00 7,9 C 38 % 1032,6 hPa 0,0 l/m 3,2 km/h (1 Bft) W-SW 249 15 min 0,000 mm 1,0 UV-I 441 W/m -5,5 C 7,9 C 4,0 km/h (1 Bft) 0,00 %
07.04.2015 18:15 7,6 C 39 % 1032,5 hPa 0,0 l/m 4,3 km/h (1 Bft) NW 314 15 min 0,000 mm 1,0 UV-I 367 W/m -5,4 C 7,6 C 7,9 km/h (2 Bft) 0,00 %
07.04.2015 18:30 6,8 C 43 % 1032,4 hPa 0,0 l/m 14,0 km/h (3 Bft) W-SW 253 0 min 0,000 mm 1,0 UV-I 101 W/m -4,9 C 1,8 C 15,8 km/h (3 Bft) 0,00 %
07.04.2015 18:45 6,7 C 42 % 1032,4 hPa 0,0 l/m 14,4 km/h (3 Bft) SW 224 15 min 0,000 mm 0,0 UV-I 234 W/m -5,3 C 1,4 C 19,8 km/h (3 Bft) 0,00 %
07.04.2015 19:00 6,0 C 45 % 1032,4 hPa 0,0 l/m 6,5 km/h (2 Bft) W-SW 256 0 min 0,000 mm 0,0 UV-I 46 W/m -5,0 C 5,9 C 7,9 km/h (2 Bft) 0,00 %
07.04.2015 19:15 5,8 C 46 % 1032,5 hPa 0,0 l/m 9,0 km/h (2 Bft) W-SW 255 0 min 0,000 mm 0,0 UV-I 22 W/m -4,9 C 3,7 C 11,9 km/h (2 Bft) 0,00 %
07.04.2015 19:30 5,6 C 47 % 1032,3 hPa 0,0 l/m 9,4 km/h (2 Bft) W-SW 255 0 min 0,000 mm 0,0 UV-I 4 W/m -4,8 C 3,2 C 11,9 km/h (2 Bft) 0,00 %
07.04.2015 19:45 5,6 C 47 % 1032,5 hPa 0,0 l/m 0,0 km/h (0 Bft) N-NW 342 0 min 0,000 mm 0,0 UV-I 0 W/m -4,8 C 5,6 C 0,0 km/h (0 Bft) 0,00 %
07.04.2015 20:00 5,5 C 52 % 1032,9 hPa 0,0 l/m 0,4 km/h (0 Bft) S-SW 198 0 min 0,000 mm 0,0 UV-I 0 W/m -3,6 C 5,5 C 4,0 km/h (1 Bft) 0,00 %
07.04.2015 20:15 5,2 C 53 % 1032,8 hPa 0,0 l/m 1,4 km/h (1 Bft) W-SW 252 0 min 0,000 mm 0,0 UV-I 0 W/m -3,6 C 5,2 C 4,0 km/h (1 Bft) 0,00 %
07.04.2015 20:30 5,1 C 52 % 1032,6 hPa 0,0 l/m 0,0 km/h (0 Bft) W-SW 254 0 min 0,000 mm 0,0 UV-I 0 W/m -3,9 C 5,1 C 0,0 km/h (0 Bft) 0,00 %
07.04.2015 20:45 5,0 C 54 % 1032,6 hPa 0,0 l/m 0,0 km/h (0 Bft) SW 226 0 min 0,000 mm 0,0 UV-I 0 W/m -3,5 C 5,0 C 0,0 km/h (0 Bft) 0,00 %
07.04.2015 21:00 4,8 C 55 % 1032,9 hPa 0,0 l/m 0,4 km/h (0 Bft) W-SW 251 0 min 0,000 mm 0,0 UV-I 0 W/m -3,5 C 4,8 C 4,0 km/h (1 Bft) 0,00 %
07.04.2015 21:15 4,6 C 54 % 1032,6 hPa 0,0 l/m 1,4 km/h (1 Bft) O-SO 121 0 min 0,000 mm 0,0 UV-I 0 W/m -3,9 C 4,6 C 4,0 km/h (1 Bft) 0,00 %
07.04.2015 21:30 4,4 C 57 % 1032,9 hPa 0,0 l/m 0,0 km/h (0 Bft) SO 143 0 min 0,000 mm 0,0 UV-I 0 W/m -3,4 C 4,4 C 0,0 km/h (0 Bft) 0,00 %
07.04.2015 21:45 4,2 C 58 % 1032,8 hPa 0,0 l/m 0,4 km/h (0 Bft) S-SW 205 0 min 0,000 mm 0,0 UV-I 0 W/m -3,3 C 4,2 C 4,0 km/h (1 Bft) 0,00 %
07.04.2015 22:00 4,1 C 56 % 1032,7 hPa 0,0 l/m 0,7 km/h (0 Bft) S-SW 198 0 min 0,000 mm 0,0 UV-I 0 W/m -3,9 C 4,1 C 4,0 km/h (1 Bft) 0,00 %
07.04.2015 22:15 4,2 C 56 % 1032,5 hPa 0,0 l/m 3,2 km/h (1 Bft) SW 227 0 min 0,000 mm 0,0 UV-I 0 W/m -3,8 C 4,2 C 7,9 km/h (2 Bft) 0,00 %
07.04.2015 22:30 3,9 C 56 % 1032,4 hPa 0,0 l/m 0,0 km/h (0 Bft) O-SO 105 0 min 0,000 mm 0,0 UV-I 0 W/m -4,1 C 3,9 C 0,0 km/h (0 Bft) 0,00 %
07.04.2015 22:45 4,0 C 56 % 1032,2 hPa 0,0 l/m 1,8 km/h (1 Bft) W-SW 256 0 min 0,000 mm 0,0 UV-I 0 W/m -4,0 C 4,0 C 4,0 km/h (1 Bft) 0,00 %
07.04.2015 23:00 4,2 C 55 % 1031,9 hPa 0,0 l/m 4,0 km/h (1 Bft) S-SW 197 0 min 0,000 mm 0,0 UV-I 0 W/m -4,0 C 4,2 C 7,9 km/h (2 Bft) 0,00 %
07.04.2015 23:15 4,1 C 56 % 1032,3 hPa 0,0 l/m 2,9 km/h (1 Bft) SW 233 0 min 0,000 mm 0,0 UV-I 0 W/m -3,9 C 4,1 C 4,0 km/h (1 Bft) 0,00 %
07.04.2015 23:30 4,1 C 57 % 1032,2 hPa 0,0 l/m 0,0 km/h (0 Bft) SO 134 0 min 0,000 mm 0,0 UV-I 0 W/m -3,6 C 4,1 C 0,0 km/h (0 Bft) 0,00 %
_ Min-Zeit 05:45 14:45 00:00 - 00:00 - - - - - - 14:45 05:45 00:00 00:00
Minimum _ -1,4 C 38 % 1031,1 hPa - 0,0 km/h (0 Bft) - - - - - - -5,7 C -1,4 C 0,0 km/h (0 Bft) 0,00 %
_ Max-Zeit 17:30 06:00 09:00 00:00 17:45 - - 10:30 00:00 12:45 13:00 09:30 17:30 17:45 00:00
Maximum _ 8,6 C 76 % 1036,8 hPa 0,0 l/m 15,8 km/h
W (3 Bft)
- - 15 min 0,000 mm 6,0 UV-I 833 W/m -3,0 C 8,6 C 24,1 km/h
W (4 Bft)
0,00 %
Durchschnitt _ 3,9 C 56 % 1033,9 hPa #0,0 l/m 2,7 km/h (1 Bft) W-SW - #4:15 h #0,000 mm 2,2 UV-I 293 W/m -4,4 C 3,5 C 4,6 km/h (1 Bft) 0,00 %